Milborne Port, United Kingdom
Current Conditions -  °F | °C
As of 5:50 PM on Wednesday 26 Nov 2014 (Local Time) from EGDY Reporting Station
Haze Haze  
Wind Chill:   Ceiling: 700
Heat Index:   Visibility: 3mi
Dew Point:   Wind: 3mph
Humidity: 93%   Direction: 330°NNW
Pressure: 29.8"   Gusts: NA
Location:  50.97°N, 2.46°W
Report Text: EGDY 261750Z AUTO 33003KT 4900 BR FEW005/// OVC007/// 08/07 Q1009
Loading
Personal Weather Stations






























Interactive Weather Map New forecast layout! Learn more

10-Day Weather Forecast

Advertisements
Track Severe Weather on mobile